Time;durP1;ratioP1;P1;durP2;ratioP2;P2;SDS_P1;SDS_P2;PMS_P1;PMS_P2;Temp;Humidity;BMP_temperature;BMP_pressure;BME280_temperature;BME280_humidity;BME280_pressure;Samples;Min_cycle;Max_cycle;Signal;HPM_P1;HPM_P2
2022/08/24 00:01:26;;;;;;;0.22;0.22;;;;;;;;;;4841327;29;20049;-90
2022/08/24 00:03:53;;;;;;;0.15;0.15;;;;;;;;;;4841018;29;20054;-91
2022/08/24 00:06:19;;;;;;;0.10;0.10;;;;;;;;;;4840944;29;20045;-90
2022/08/24 00:08:46;;;;;;;0.10;0.10;;;;;;;;;;4840956;29;20088;-90
2022/08/24 00:11:12;;;;;;;0.10;0.10;;;;;;;;;;4840818;29;20034;-89
2022/08/24 00:13:38;;;;;;;0.10;0.10;;;;;;;;;;4840841;29;20052;-88
2022/08/24 00:16:05;;;;;;;0.10;0.10;;;;;;;;;;4841066;29;20054;-89
2022/08/24 00:18:32;;;;;;;0.10;0.10;;;;;;;;;;4841005;29;20113;-89
2022/08/24 00:20:58;;;;;;;0.10;0.10;;;;;;;;;;4840875;29;20179;-92
2022/08/24 00:23:27;;;;;;;0.17;0.17;;;;;;;;;;4841185;29;20066;-91
2022/08/24 00:25:53;;;;;;;0.10;0.10;;;;;;;;;;4840577;29;20066;-91
2022/08/24 00:28:19;;;;;;;0.20;0.20;;;;;;;;;;4840794;29;20053;-91
2022/08/24 00:30:45;;;;;;;0.10;0.10;;;;;;;;;;4840962;29;20130;-91
2022/08/24 00:33:11;;;;;;;0.10;0.10;;;;;;;;;;4841097;29;20474;-90
2022/08/24 00:35:37;;;;;;;0.32;0.32;;;;;;;;;;4841347;29;20050;-93
2022/08/24 00:38:03;;;;;;;0.10;0.10;;;;;;;;;;4840687;29;20084;-92
2022/08/24 00:40:40;;;;;;;0.10;0.10;;;;;;;;;;4841031;29;20081;-92
2022/08/24 00:43:07;;;;;;;0.10;0.10;;;;;;;;;;4841210;29;20085;-91
2022/08/24 00:45:44;;;;;;;0.10;0.10;;;;;;;;;;4840261;29;20053;-90
2022/08/24 00:48:15;;;;;;;0.10;0.10;;;;;;;;;;4840098;29;20057;-91
2022/08/24 00:50:42;;;;;;;0.17;0.17;;;;;;;;;;4840389;29;20045;-90
2022/08/24 00:53:13;;;;;;;0.10;0.10;;;;;;;;;;4840429;29;20386;-90
2022/08/24 00:55:42;;;;;;;0.10;0.10;;;;;;;;;;4840445;29;20042;-90
2022/08/24 00:58:13;;;;;;;0.10;0.10;;;;;;;;;;4855945;29;20038;-90
2022/08/24 01:00:40;;;;;;;0.10;0.10;;;;;;;;;;4840703;29;20089;-89
2022/08/24 01:03:06;;;;;;;0.10;0.10;;;;;;;;;;4840289;29;20081;-90
2022/08/24 01:05:33;;;;;;;0.10;0.10;;;;;;;;;;4840313;29;20077;-90
2022/08/24 01:07:59;;;;;;;0.43;0.20;;;;;;;;;;4840484;29;20050;-89
2022/08/24 01:10:26;;;;;;;0.10;0.10;;;;;;;;;;4840353;29;20046;-91
2022/08/24 01:12:53;;;;;;;0.10;0.10;;;;;;;;;;4840203;29;20053;-91
2022/08/24 01:15:21;;;;;;;0.10;0.10;;;;;;;;;;4840234;29;20497;-90
2022/08/24 01:20:31;;;;;;;0.10;0.10;;;;;;;;;;4827450;29;20046;-90
2022/08/24 01:23:10;;;;;;;0.10;0.10;;;;;;;;;;4840421;29;20056;-90
2022/08/24 01:25:36;;;;;;;0.10;0.10;;;;;;;;;;4841004;29;20042;-90
2022/08/24 01:28:10;;;;;;;0.10;0.10;;;;;;;;;;4843260;29;20053;-90
2022/08/24 01:30:36;;;;;;;0.10;0.10;;;;;;;;;;4827841;29;20041;-90
2022/08/24 01:33:04;;;;;;;0.10;0.10;;;;;;;;;;4843526;29;20454;-90
2022/08/24 01:35:31;;;;;;;0.15;0.15;;;;;;;;;;4843027;29;20048;-90
2022/08/24 01:37:57;;;;;;;0.10;0.10;;;;;;;;;;4828003;29;20046;-89
2022/08/24 01:40:24;;;;;;;0.10;0.10;;;;;;;;;;4827963;29;20076;-90
2022/08/24 01:42:51;;;;;;;0.10;0.10;;;;;;;;;;4843289;29;20397;-92
2022/08/24 01:45:18;;;;;;;0.10;0.10;;;;;;;;;;4828195;29;20429;-91
2022/08/24 01:47:44;;;;;;;0.10;0.10;;;;;;;;;;4827908;29;20081;-91
2022/08/24 01:50:10;;;;;;;0.10;0.10;;;;;;;;;;4828009;29;20041;-91
2022/08/24 01:52:37;;;;;;;0.00;0.00;;;;;;;;;;4843206;29;20514;-90
2022/08/24 01:55:05;;;;;;;0.10;0.10;;;;;;;;;;4827712;29;20042;-90
2022/08/24 01:57:31;;;;;;;0.10;0.10;;;;;;;;;;4828240;29;20049;-90
2022/08/24 01:59:57;;;;;;;0.10;0.10;;;;;;;;;;4846511;29;20049;-90
2022/08/24 02:02:24;;;;;;;0.10;0.10;;;;;;;;;;4846181;29;20192;-91
2022/08/24 02:04:50;;;;;;;0.10;0.10;;;;;;;;;;4830957;29;20480;-89
2022/08/24 02:07:17;;;;;;;0.10;0.10;;;;;;;;;;4846360;29;20081;-90
2022/08/24 02:09:43;;;;;;;0.10;0.10;;;;;;;;;;4846309;29;20069;-89
2022/08/24 02:12:09;;;;;;;0.10;0.10;;;;;;;;;;4830738;29;20080;-90
2022/08/24 02:14:35;;;;;;;0.10;0.10;;;;;;;;;;4845973;29;20045;-90
2022/08/24 02:17:03;;;;;;;0.10;0.10;;;;;;;;;;4830576;29;20132;-90
2022/08/24 02:19:29;;;;;;;0.10;0.10;;;;;;;;;;4830710;29;20052;-90
2022/08/24 02:21:55;;;;;;;0.10;0.10;;;;;;;;;;4846049;29;20064;-90
2022/08/24 02:24:21;;;;;;;0.10;0.10;;;;;;;;;;4830620;29;20474;-91
2022/08/24 02:26:48;;;;;;;0.10;0.10;;;;;;;;;;4827490;29;20144;-90
2022/08/24 02:29:14;;;;;;;0.10;0.10;;;;;;;;;;4843543;29;20046;-92
2022/08/24 02:31:40;;;;;;;0.10;0.10;;;;;;;;;;4843311;29;20522;-91
2022/08/24 02:34:06;;;;;;;0.10;0.10;;;;;;;;;;4842645;29;20084;-91
2022/08/24 02:36:32;;;;;;;0.10;0.10;;;;;;;;;;4842813;29;20046;-91
2022/08/24 02:38:58;;;;;;;0.10;0.10;;;;;;;;;;4842521;29;20045;-91
2022/08/24 02:41:24;;;;;;;0.10;0.10;;;;;;;;;;4842454;29;20133;-90
2022/08/24 02:43:50;;;;;;;0.10;0.10;;;;;;;;;;4842519;29;20049;-89
2022/08/24 02:46:17;;;;;;;0.10;0.10;;;;;;;;;;4842817;29;20103;-90
2022/08/24 02:48:43;;;;;;;0.10;0.10;;;;;;;;;;4842734;29;20049;-90
2022/08/24 02:51:17;;;;;;;0.10;0.10;;;;;;;;;;4842672;29;20045;-91
2022/08/24 02:53:43;;;;;;;0.10;0.10;;;;;;;;;;4842812;29;20562;-91
2022/08/24 02:56:09;;;;;;;0.10;0.10;;;;;;;;;;4842575;29;20050;-91
2022/08/24 02:58:35;;;;;;;0.10;0.10;;;;;;;;;;4842274;29;20483;-91
2022/08/24 03:01:01;;;;;;;0.75;0.75;;;;;;;;;;4842366;29;20042;-91
2022/08/24 03:03:27;;;;;;;0.43;0.17;;;;;;;;;;4842531;29;20046;-90
2022/08/24 03:05:53;;;;;;;0.10;0.10;;;;;;;;;;4842176;29;20486;-90
2022/08/24 03:08:19;;;;;;;0.32;0.28;;;;;;;;;;4842222;29;20043;-90
2022/08/24 03:10:45;;;;;;;0.10;0.10;;;;;;;;;;4841423;29;20183;-90
2022/08/24 03:13:11;;;;;;;0.20;0.20;;;;;;;;;;4842073;29;20116;-91
2022/08/24 03:15:37;;;;;;;0.10;0.10;;;;;;;;;;4841935;29;20509;-90
2022/08/24 03:18:03;;;;;;;0.10;0.10;;;;;;;;;;4842485;29;20041;-91
2022/08/24 03:20:29;;;;;;;0.10;0.10;;;;;;;;;;4842243;29;20049;-91
2022/08/24 03:22:55;;;;;;;0.10;0.10;;;;;;;;;;4842226;29;20046;-91
2022/08/24 03:25:23;;;;;;;0.10;0.10;;;;;;;;;;4841928;29;20069;-91
2022/08/24 03:27:49;;;;;;;0.10;0.10;;;;;;;;;;4841854;29;20145;-91
2022/08/24 03:30:16;;;;;;;0.10;0.10;;;;;;;;;;4842048;29;20102;-91
2022/08/24 03:32:42;;;;;;;0.10;0.10;;;;;;;;;;4842744;29;20420;-92
2022/08/24 03:35:12;;;;;;;0.10;0.10;;;;;;;;;;4842327;29;20049;-92
2022/08/24 03:37:38;;;;;;;0.10;0.10;;;;;;;;;;4841783;29;20283;-91
2022/08/24 03:40:05;;;;;;;0.10;0.10;;;;;;;;;;4841897;29;20465;-92
2022/08/24 03:42:31;;;;;;;0.10;0.10;;;;;;;;;;4842412;29;20046;-92
2022/08/24 03:44:57;;;;;;;0.10;0.10;;;;;;;;;;4841729;29;20049;-92
2022/08/24 03:47:23;;;;;;;0.10;0.10;;;;;;;;;;4841885;29;20042;-92
2022/08/24 03:49:49;;;;;;;0.20;0.20;;;;;;;;;;4841990;29;20186;-92
2022/08/24 03:52:15;;;;;;;0.10;0.10;;;;;;;;;;4841858;29;20442;-91
2022/08/24 03:54:41;;;;;;;0.10;0.10;;;;;;;;;;4841582;29;20041;-90
2022/08/24 03:57:07;;;;;;;0.10;0.10;;;;;;;;;;4841392;29;20048;-91
2022/08/24 03:59:33;;;;;;;0.10;0.10;;;;;;;;;;4841266;29;20137;-90
2022/08/24 04:01:59;;;;;;;0.10;0.10;;;;;;;;;;4841322;29;20107;-90
2022/08/24 04:04:25;;;;;;;0.10;0.10;;;;;;;;;;4841402;29;20052;-90
2022/08/24 04:06:51;;;;;;;0.10;0.10;;;;;;;;;;4841013;29;20098;-89
2022/08/24 04:09:17;;;;;;;0.10;0.10;;;;;;;;;;4841121;29;20049;-90
2022/08/24 04:11:44;;;;;;;0.10;0.10;;;;;;;;;;4841398;29;20471;-90
2022/08/24 04:14:10;;;;;;;0.10;0.10;;;;;;;;;;4840988;29;20125;-90
2022/08/24 04:16:37;;;;;;;0.10;0.10;;;;;;;;;;4841449;29;20391;-91
2022/08/24 04:19:03;;;;;;;0.10;0.10;;;;;;;;;;4840893;29;20056;-91
2022/08/24 04:21:33;;;;;;;0.10;0.10;;;;;;;;;;4841182;29;20068;-91
2022/08/24 04:23:59;;;;;;;0.10;0.10;;;;;;;;;;4840932;29;20050;-91
2022/08/24 04:26:26;;;;;;;0.10;0.10;;;;;;;;;;4841079;29;20049;-91
2022/08/24 04:28:52;;;;;;;0.10;0.10;;;;;;;;;;4840915;29;20045;-91
2022/08/24 04:31:18;;;;;;;0.10;0.10;;;;;;;;;;4841056;29;20053;-91
2022/08/24 04:33:50;;;;;;;0.10;0.10;;;;;;;;;;4840861;29;20099;-90
2022/08/24 04:36:16;;;;;;;0.10;0.10;;;;;;;;;;4840909;29;20121;-90
2022/08/24 04:38:42;;;;;;;0.10;0.10;;;;;;;;;;4840998;29;20099;-89
2022/08/24 04:41:12;;;;;;;0.10;0.10;;;;;;;;;;4840536;29;20050;-90
2022/08/24 04:43:38;;;;;;;0.10;0.10;;;;;;;;;;4840763;29;20069;-91
2022/08/24 04:46:07;;;;;;;0.10;0.10;;;;;;;;;;4840720;29;20049;-92
2022/08/24 04:48:33;;;;;;;0.15;0.15;;;;;;;;;;4840487;29;20038;-91
2022/08/24 04:51:03;;;;;;;0.10;0.10;;;;;;;;;;4840733;29;20050;-91
2022/08/24 04:53:30;;;;;;;0.10;0.10;;;;;;;;;;4840975;29;20048;-91
2022/08/24 04:55:56;;;;;;;0.20;0.20;;;;;;;;;;4840583;29;20455;-91
2022/08/24 04:58:22;;;;;;;0.10;0.10;;;;;;;;;;4840786;29;20081;-91
2022/08/24 05:00:48;;;;;;;0.10;0.10;;;;;;;;;;4840602;29;20139;-90
2022/08/24 05:03:15;;;;;;;0.10;0.10;;;;;;;;;;4840339;29;20525;-90
2022/08/24 05:05:42;;;;;;;0.13;0.13;;;;;;;;;;4840520;29;20050;-90
2022/08/24 05:08:09;;;;;;;0.10;0.10;;;;;;;;;;4840454;29;20129;-89
2022/08/24 05:10:36;;;;;;;0.10;0.10;;;;;;;;;;4840192;29;20409;-90
2022/08/24 05:13:02;;;;;;;0.10;0.10;;;;;;;;;;4840335;29;20117;-91
2022/08/24 05:15:28;;;;;;;0.10;0.10;;;;;;;;;;4840137;29;20110;-90
2022/08/24 05:17:54;;;;;;;0.10;0.10;;;;;;;;;;4840460;29;20044;-90
2022/08/24 05:20:20;;;;;;;0.10;0.10;;;;;;;;;;4840860;29;20042;-90
2022/08/24 05:22:46;;;;;;;0.20;0.20;;;;;;;;;;4840382;29;20052;-91
2022/08/24 05:25:12;;;;;;;0.10;0.10;;;;;;;;;;4840226;29;20046;-91
2022/08/24 05:27:38;;;;;;;0.10;0.10;;;;;;;;;;4843254;29;20511;-92
2022/08/24 05:30:04;;;;;;;0.10;0.10;;;;;;;;;;4828339;29;20116;-93
2022/08/24 05:32:30;;;;;;;0.10;0.10;;;;;;;;;;4829070;29;20362;-91
2022/08/24 05:34:58;;;;;;;0.10;0.10;;;;;;;;;;4831681;29;20037;-90
2022/08/24 05:37:25;;;;;;;0.10;0.10;;;;;;;;;;4831601;29;20064;-88
2022/08/24 05:39:51;;;;;;;0.10;0.10;;;;;;;;;;4846913;29;20088;-89
2022/08/24 05:42:18;;;;;;;0.10;0.10;;;;;;;;;;4831314;29;20509;-89
2022/08/24 05:44:44;;;;;;;0.10;0.10;;;;;;;;;;4846334;29;20045;-89
2022/08/24 05:47:10;;;;;;;0.30;0.30;;;;;;;;;;4846395;29;20406;-89
2022/08/24 05:49:36;;;;;;;0.10;0.10;;;;;;;;;;4846602;29;20053;-90
2022/08/24 05:52:02;;;;;;;0.57;0.15;;;;;;;;;;4831266;29;20041;-89
2022/08/24 05:54:28;;;;;;;0.10;0.10;;;;;;;;;;4830847;29;20497;-89
2022/08/24 05:56:56;;;;;;;0.30;0.20;;;;;;;;;;4846525;29;20037;-89
2022/08/24 05:59:22;;;;;;;0.10;0.10;;;;;;;;;;4830765;29;20141;-88
2022/08/24 06:01:48;;;;;;;0.10;0.10;;;;;;;;;;4846347;29;20085;-88
2022/08/24 06:04:14;;;;;;;0.10;0.10;;;;;;;;;;4830680;29;20088;-89
2022/08/24 06:06:41;;;;;;;0.10;0.10;;;;;;;;;;4845462;29;20080;-90
2022/08/24 06:09:07;;;;;;;0.10;0.10;;;;;;;;;;4812064;29;20053;-90
2022/08/24 06:11:36;;;;;;;0.10;0.10;;;;;;;;;;4827678;29;20057;-90
2022/08/24 06:14:28;;;;;;;0.10;0.10;;;;;;;;;;4863344;29;20074;-89
2022/08/24 06:16:54;;;;;;;0.13;0.13;;;;;;;;;;4862287;29;20116;-90
2022/08/24 06:19:20;;;;;;;0.10;0.10;;;;;;;;;;4864617;29;20132;-90
2022/08/24 06:21:47;;;;;;;0.10;0.10;;;;;;;;;;4864521;29;20094;-88
2022/08/24 06:24:14;;;;;;;0.10;0.10;;;;;;;;;;4863684;29;20398;-89
2022/08/24 06:29:25;;;;;;;0.28;0.20;;;;;;;;;;4848216;29;20470;-89
2022/08/24 06:31:51;;;;;;;0.10;0.10;;;;;;;;;;4861042;29;20041;-90
2022/08/24 06:34:17;;;;;;;0.20;0.20;;;;;;;;;;4860866;29;20053;-90
2022/08/24 06:36:43;;;;;;;0.10;0.10;;;;;;;;;;4860813;29;20149;-90
2022/08/24 06:39:09;;;;;;;0.17;0.17;;;;;;;;;;4860981;29;20045;-91
2022/08/24 06:41:36;;;;;;;0.10;0.10;;;;;;;;;;4860749;29;20422;-92
2022/08/24 06:44:02;;;;;;;0.10;0.10;;;;;;;;;;4860018;29;20046;-92
2022/08/24 06:46:28;;;;;;;0.10;0.10;;;;;;;;;;4861171;29;20129;-92
2022/08/24 06:48:54;;;;;;;0.10;0.10;;;;;;;;;;4860944;29;20501;-92
2022/08/24 06:51:21;;;;;;;0.10;0.10;;;;;;;;;;4860285;29;20045;-92
2022/08/24 06:53:47;;;;;;;0.10;0.10;;;;;;;;;;4860938;29;20046;-92
2022/08/24 06:56:13;;;;;;;0.10;0.10;;;;;;;;;;4860991;29;20042;-93
2022/08/24 06:58:39;;;;;;;0.20;0.20;;;;;;;;;;4860822;29;20052;-93
2022/08/24 07:01:12;;;;;;;0.20;0.20;;;;;;;;;;4860761;29;20564;-93
2022/08/24 07:03:38;;;;;;;0.20;0.20;;;;;;;;;;4861956;29;20050;-93
2022/08/24 07:06:06;;;;;;;0.17;0.17;;;;;;;;;;4861603;29;20049;-94
2022/08/24 07:08:32;;;;;;;0.20;0.20;;;;;;;;;;4860698;29;20101;-94
2022/08/24 07:10:58;;;;;;;0.10;0.10;;;;;;;;;;4860708;29;20051;-94
2022/08/24 07:13:24;;;;;;;0.20;0.20;;;;;;;;;;4861174;29;20041;-94
2022/08/24 07:15:51;;;;;;;0.10;0.10;;;;;;;;;;4860249;29;20049;-93
2022/08/24 07:18:17;;;;;;;0.20;0.20;;;;;;;;;;4860513;29;20053;-94
2022/08/24 07:20:43;;;;;;;0.20;0.20;;;;;;;;;;4860626;29;20085;-93
2022/08/24 07:23:11;;;;;;;0.20;0.20;;;;;;;;;;4859877;29;20515;-93
2022/08/24 07:25:37;;;;;;;0.20;0.20;;;;;;;;;;4860720;29;20049;-94
2022/08/24 07:28:06;;;;;;;0.15;0.15;;;;;;;;;;4847470;29;20509;-94
2022/08/24 07:30:32;;;;;;;0.20;0.20;;;;;;;;;;4848244;29;20053;-94
2022/08/24 07:32:58;;;;;;;0.20;0.20;;;;;;;;;;4863674;29;20501;-92
2022/08/24 07:35:25;;;;;;;0.20;0.20;;;;;;;;;;4863581;29;20048;-95
2022/08/24 07:37:51;;;;;;;0.20;0.20;;;;;;;;;;4847444;29;20081;-91
2022/08/24 07:40:19;;;;;;;0.20;0.20;;;;;;;;;;4847592;29;20048;-93
2022/08/24 07:42:49;;;;;;;0.20;0.20;;;;;;;;;;4847603;29;20040;-93
2022/08/24 07:45:15;;;;;;;0.20;0.20;;;;;;;;;;4847279;29;20053;-93
2022/08/24 07:47:42;;;;;;;0.20;0.20;;;;;;;;;;4847929;29;20093;-94
2022/08/24 07:50:09;;;;;;;0.20;0.20;;;;;;;;;;4844259;29;20132;-95
2022/08/24 07:52:35;;;;;;;0.20;0.20;;;;;;;;;;4847283;29;20083;-93
2022/08/24 07:55:01;;;;;;;0.20;0.20;;;;;;;;;;4847035;29;20044;-93
2022/08/24 07:57:27;;;;;;;0.20;0.20;;;;;;;;;;4862721;29;20037;-94
2022/08/24 07:59:53;;;;;;;0.20;0.20;;;;;;;;;;4847650;29;20051;-93
2022/08/24 08:02:19;;;;;;;0.20;0.20;;;;;;;;;;4846822;29;20047;-93
2022/08/24 08:04:47;;;;;;;0.20;0.20;;;;;;;;;;4847281;29;20181;-93
2022/08/24 08:07:13;;;;;;;0.20;0.20;;;;;;;;;;4846776;29;20572;-93
2022/08/24 08:09:39;;;;;;;0.20;0.20;;;;;;;;;;4847009;29;20087;-92
2022/08/24 08:12:06;;;;;;;0.20;0.20;;;;;;;;;;4847432;29;20397;-92
2022/08/24 08:14:32;;;;;;;0.20;0.20;;;;;;;;;;4846649;29;20041;-92
2022/08/24 08:16:58;;;;;;;0.20;0.20;;;;;;;;;;4846738;29;20049;-92
2022/08/24 08:19:27;;;;;;;0.20;0.20;;;;;;;;;;4862743;29;20389;-92
2022/08/24 08:24:49;;;;;;;0.20;0.20;;;;;;;;;;4844767;29;20138;-93
2022/08/24 08:27:24;;;;;;;0.20;0.20;;;;;;;;;;4843693;29;20065;-94
2022/08/24 08:29:50;;;;;;;0.20;0.20;;;;;;;;;;4859510;29;20045;-93
2022/08/24 08:32:18;;;;;;;0.20;0.20;;;;;;;;;;4860567;29;20098;-94
2022/08/24 08:34:44;;;;;;;0.22;0.22;;;;;;;;;;4858746;29;20188;-93
2022/08/24 08:37:12;;;;;;;0.20;0.20;;;;;;;;;;4858922;29;20503;-94
2022/08/24 08:39:39;;;;;;;0.20;0.20;;;;;;;;;;4859173;29;20078;-95
2022/08/24 08:42:20;;;;;;;0.75;0.30;;;;;;;;;;4859395;29;20049;-94
2022/08/24 08:44:49;;;;;;;0.20;0.20;;;;;;;;;;4860121;29;20088;-94
2022/08/24 08:47:34;;;;;;;0.30;0.30;;;;;;;;;;4875247;29;20045;-95
2022/08/24 08:50:17;;;;;;;0.20;0.20;;;;;;;;;;4859147;29;20046;-94
2022/08/24 08:53:01;;;;;;;0.20;0.20;;;;;;;;;;4859934;29;20077;-95
2022/08/24 08:55:32;;;;;;;0.28;0.28;;;;;;;;;;4859243;29;20406;-94
2022/08/24 08:58:01;;;;;;;0.30;0.30;;;;;;;;;;4859539;29;20052;-95
2022/08/24 09:00:45;;;;;;;0.30;0.30;;;;;;;;;;4859013;29;20068;-94
2022/08/24 09:03:33;;;;;;;0.40;0.40;;;;;;;;;;4859418;29;20410;-95
2022/08/24 09:06:18;;;;;;;0.30;0.30;;;;;;;;;;4859433;29;20063;-95
2022/08/24 09:08:56;;;;;;;0.30;0.30;;;;;;;;;;4858382;29;20112;-95
2022/08/24 09:11:39;;;;;;;0.30;0.30;;;;;;;;;;4858934;29;20052;-94
2022/08/24 09:14:08;;;;;;;0.20;0.20;;;;;;;;;;4858680;29;20132;-94
2022/08/24 09:16:41;;;;;;;0.30;0.30;;;;;;;;;;4858702;29;20053;-93
2022/08/24 09:19:19;;;;;;;0.30;0.30;;;;;;;;;;4858431;29;20049;-90
2022/08/24 09:21:51;;;;;;;0.30;0.30;;;;;;;;;;4858990;29;20045;-92
2022/08/24 09:24:24;;;;;;;0.30;0.30;;;;;;;;;;4859010;29;20053;-92
2022/08/24 09:27:09;;;;;;;0.20;0.20;;;;;;;;;;4858365;29;20068;-93
2022/08/24 09:29:38;;;;;;;0.30;0.30;;;;;;;;;;4858530;29;20042;-92
2022/08/24 09:32:17;;;;;;;0.35;0.35;;;;;;;;;;4858756;29;20405;-90
2022/08/24 09:34:55;;;;;;;0.20;0.20;;;;;;;;;;4858293;29;20053;-91
2022/08/24 09:37:40;;;;;;;0.22;0.22;;;;;;;;;;4858116;29;20132;-91
2022/08/24 09:40:18;;;;;;;0.30;0.30;;;;;;;;;;4858030;29;20045;-92
2022/08/24 09:42:50;;;;;;;0.20;0.20;;;;;;;;;;4854523;29;20189;-93
2022/08/24 09:45:23;;;;;;;0.20;0.20;;;;;;;;;;4859584;29;20097;-92
2022/08/24 09:47:49;;;;;;;0.20;0.20;;;;;;;;;;4858163;29;20151;-93
2022/08/24 09:50:20;;;;;;;0.20;0.20;;;;;;;;;;4843687;29;20050;-96
2022/08/24 09:53:05;;;;;;;0.20;0.20;;;;;;;;;;4858676;29;20160;-94
2022/08/24 09:55:37;;;;;;;0.20;0.20;;;;;;;;;;4859398;29;20045;-94
2022/08/24 09:58:06;;;;;;;0.30;0.30;;;;;;;;;;4858637;29;20045;-94
2022/08/24 10:00:35;;;;;;;0.30;0.30;;;;;;;;;;4858590;29;20050;-94
2022/08/24 10:03:26;;;;;;;0.20;0.20;;;;;;;;;;4858603;29;20049;-94
2022/08/24 10:06:04;;;;;;;0.20;0.20;;;;;;;;;;4841917;29;20094;-94
2022/08/24 10:08:49;;;;;;;0.30;0.30;;;;;;;;;;4858390;29;20050;-94
2022/08/24 10:11:21;;;;;;;0.20;0.20;;;;;;;;;;4873919;29;20050;-94
2022/08/24 10:13:57;;;;;;;0.20;0.20;;;;;;;;;;4858864;29;20494;-96
2022/08/24 10:16:43;;;;;;;0.20;0.20;;;;;;;;;;4859134;29;20053;-94
2022/08/24 10:19:24;;;;;;;0.20;0.20;;;;;;;;;;4860126;29;20498;-92
2022/08/24 10:22:09;;;;;;;0.20;0.20;;;;;;;;;;4861346;29;20052;-91
2022/08/24 10:24:40;;;;;;;0.20;0.20;;;;;;;;;;4861724;29;20040;-94
2022/08/24 10:27:08;;;;;;;0.30;0.30;;;;;;;;;;4861412;29;20053;-93
2022/08/24 10:29:53;;;;;;;0.25;0.25;;;;;;;;;;4861877;29;20060;-93
2022/08/24 10:32:35;;;;;;;0.20;0.20;;;;;;;;;;4861173;29;20508;-93
2022/08/24 10:35:12;;;;;;;0.28;0.28;;;;;;;;;;4861696;29;20045;-94
2022/08/24 10:37:44;;;;;;;0.20;0.20;;;;;;;;;;4864391;29;20512;-93
2022/08/24 10:40:14;;;;;;;0.30;0.30;;;;;;;;;;4861370;29;20049;-94
2022/08/24 10:45:47;;;;;;;0.30;0.30;;;;;;;;;;4848180;29;20088;-94
2022/08/24 10:48:19;;;;;;;0.30;0.30;;;;;;;;;;4863391;29;20053;-95
2022/08/24 10:50:51;;;;;;;0.30;0.30;;;;;;;;;;4849816;29;20076;-94
2022/08/24 10:53:26;;;;;;;0.30;0.30;;;;;;;;;;4861400;29;20097;-95
2022/08/24 10:56:05;;;;;;;0.20;0.20;;;;;;;;;;4861102;29;20147;-95
2022/08/24 10:58:50;;;;;;;0.20;0.20;;;;;;;;;;4861626;29;20467;-95
2022/08/24 11:01:26;;;;;;;0.30;0.30;;;;;;;;;;4861641;29;20133;-94
2022/08/24 11:03:53;;;;;;;0.30;0.30;;;;;;;;;;4861826;29;20081;-94
2022/08/24 11:06:19;;;;;;;0.30;0.30;;;;;;;;;;4861175;29;20349;-95
2022/08/24 11:08:57;;;;;;;0.30;0.30;;;;;;;;;;4861523;29;20060;-94
2022/08/24 11:11:26;;;;;;;0.30;0.30;;;;;;;;;;4861538;29;20061;-95
2022/08/24 11:13:57;;;;;;;0.30;0.30;;;;;;;;;;4861496;29;20041;-91
2022/08/24 11:16:29;;;;;;;0.20;0.20;;;;;;;;;;4877664;29;20053;-93
2022/08/24 11:18:58;;;;;;;0.20;0.20;;;;;;;;;;4861483;29;20250;-93
2022/08/24 11:21:40;;;;;;;0.30;0.30;;;;;;;;;;4861953;29;20064;-95
2022/08/24 11:24:12;;;;;;;0.30;0.30;;;;;;;;;;4866559;29;20049;-95
2022/08/24 11:26:46;;;;;;;0.20;0.20;;;;;;;;;;4863675;29;20061;-96
2022/08/24 11:29:22;;;;;;;0.20;0.20;;;;;;;;;;4866203;29;20045;-96
2022/08/24 11:31:49;;;;;;;0.20;0.20;;;;;;;;;;4867131;29;20046;-92
2022/08/24 11:34:17;;;;;;;0.20;0.20;;;;;;;;;;4862905;29;20050;-96
2022/08/24 11:36:46;;;;;;;0.20;0.20;;;;;;;;;;4877118;29;20115;-94
2022/08/24 11:39:22;;;;;;;0.20;0.20;;;;;;;;;;4859744;29;20045;-93
2022/08/24 11:41:49;;;;;;;0.20;0.20;;;;;;;;;;4860224;29;20048;-93
2022/08/24 11:44:25;;;;;;;0.20;0.20;;;;;;;;;;4859663;29;20048;-94
2022/08/24 11:46:57;;;;;;;0.20;0.20;;;;;;;;;;4860928;29;20042;-95
2022/08/24 11:49:41;;;;;;;0.20;0.20;;;;;;;;;;4860354;29;20050;-94
2022/08/24 11:52:10;;;;;;;0.20;0.20;;;;;;;;;;4861421;29;20558;-94
2022/08/24 11:54:43;;;;;;;0.30;0.30;;;;;;;;;;4863521;29;20129;-94
2022/08/24 11:57:17;;;;;;;0.20;0.20;;;;;;;;;;4861336;29;20038;-91
2022/08/24 11:59:49;;;;;;;0.20;0.20;;;;;;;;;;4859824;29;20447;-92
2022/08/24 12:02:35;;;;;;;0.20;0.20;;;;;;;;;;4875708;29;20045;-93
2022/08/24 12:05:03;;;;;;;0.20;0.20;;;;;;;;;;4842456;29;20113;-93
2022/08/24 12:07:51;;;;;;;0.20;0.20;;;;;;;;;;4860265;29;20397;-92
2022/08/24 12:10:23;;;;;;;0.20;0.20;;;;;;;;;;4859774;29;20033;-95
2022/08/24 12:13:02;;;;;;;0.20;0.20;;;;;;;;;;4875671;29;20041;-93
2022/08/24 12:15:47;;;;;;;0.20;0.20;;;;;;;;;;4860232;29;20453;-93
2022/08/24 12:18:27;;;;;;;0.20;0.20;;;;;;;;;;4859466;29;20219;-95
2022/08/24 12:20:56;;;;;;;0.20;0.20;;;;;;;;;;4860334;29;20056;-94
2022/08/24 12:23:41;;;;;;;0.20;0.20;;;;;;;;;;4860093;29;20048;-96
2022/08/24 12:26:30;;;;;;;0.20;0.20;;;;;;;;;;4865094;29;20112;-94
2022/08/24 12:29:03;;;;;;;0.20;0.20;;;;;;;;;;4858161;29;20585;-94
2022/08/24 12:31:34;;;;;;;0.20;0.20;;;;;;;;;;4865326;29;20077;-96
2022/08/24 12:34:03;;;;;;;0.20;0.20;;;;;;;;;;4872094;29;20041;-95
2022/08/24 12:36:47;;;;;;;0.20;0.20;;;;;;;;;;4865707;29;20050;-96
2022/08/24 12:39:22;;;;;;;0.20;0.20;;;;;;;;;;4853357;29;20041;-95
2022/08/24 12:42:08;;;;;;;0.20;0.20;;;;;;;;;;4816180;29;20135;-93
2022/08/24 12:44:40;;;;;;;0.20;0.20;;;;;;;;;;4853375;29;20060;-92
2022/08/24 12:47:29;;;;;;;0.20;0.20;;;;;;;;;;4813848;29;20050;-95
2022/08/24 12:49:57;;;;;;;0.20;0.20;;;;;;;;;;4837721;29;20486;-95
2022/08/24 12:52:43;;;;;;;0.20;0.20;;;;;;;;;;4829255;29;20455;-94
2022/08/24 12:55:17;;;;;;;0.20;0.20;;;;;;;;;;4843862;29;20084;-96
2022/08/24 12:58:05;;;;;;;0.20;0.20;;;;;;;;;;4818043;29;20066;-96
2022/08/24 13:00:33;;;;;;;0.20;0.20;;;;;;;;;;4839409;29;20230;-94
2022/08/24 13:03:02;;;;;;;0.20;0.20;;;;;;;;;;4814223;29;20143;-94
2022/08/24 13:05:45;;;;;;;0.20;0.20;;;;;;;;;;4814080;29;20054;-96
2022/08/24 13:08:18;;;;;;;0.20;0.20;;;;;;;;;;4836427;29;20562;-94
2022/08/24 13:10:45;;;;;;;0.20;0.20;;;;;;;;;;4813411;29;20053;-93
2022/08/24 13:13:13;;;;;;;0.20;0.20;;;;;;;;;;4828769;29;20068;-94
2022/08/24 13:15:39;;;;;;;0.20;0.20;;;;;;;;;;4828460;29;20050;-94
2022/08/24 13:18:08;;;;;;;0.20;0.20;;;;;;;;;;4828889;29;20042;-93
2022/08/24 13:20:43;;;;;;;0.20;0.20;;;;;;;;;;4843346;29;20137;-92
2022/08/24 13:23:22;;;;;;;0.20;0.20;;;;;;;;;;4836231;29;20128;-96
2022/08/24 13:26:07;;;;;;;0.20;0.20;;;;;;;;;;4820568;29;20080;-95
2022/08/24 13:28:43;;;;;;;0.20;0.20;;;;;;;;;;4835165;29;20082;-94
2022/08/24 13:31:25;;;;;;;0.20;0.20;;;;;;;;;;4844447;29;20076;-96
2022/08/24 13:34:08;;;;;;;0.20;0.20;;;;;;;;;;4817883;29;20100;-96
2022/08/24 13:36:38;;;;;;;0.20;0.20;;;;;;;;;;4847746;29;20120;-94
2022/08/24 13:39:16;;;;;;;0.20;0.20;;;;;;;;;;4833927;29;20049;-95
2022/08/24 13:41:54;;;;;;;0.20;0.20;;;;;;;;;;4837158;29;20038;-96
2022/08/24 13:44:29;;;;;;;0.20;0.20;;;;;;;;;;4848454;29;20136;-96
2022/08/24 13:47:01;;;;;;;0.20;0.20;;;;;;;;;;4838987;29;20120;-96
2022/08/24 13:49:48;;;;;;;0.20;0.20;;;;;;;;;;4830611;29;20132;-95
2022/08/24 13:52:33;;;;;;;0.20;0.20;;;;;;;;;;4843226;29;20037;-95
2022/08/24 13:55:11;;;;;;;0.20;0.20;;;;;;;;;;4868261;29;20048;-95
2022/08/24 13:57:41;;;;;;;0.20;0.20;;;;;;;;;;4868390;29;20469;-94
2022/08/24 14:00:17;;;;;;;0.20;0.20;;;;;;;;;;4870099;29;20087;-94
2022/08/24 14:02:45;;;;;;;0.20;0.20;;;;;;;;;;4865396;29;20072;-94
2022/08/24 14:05:31;;;;;;;0.20;0.20;;;;;;;;;;4863132;29;20123;-95
2022/08/24 14:08:19;;;;;;;0.20;0.20;;;;;;;;;;4833813;29;20133;-95
2022/08/24 14:10:56;;;;;;;0.20;0.20;;;;;;;;;;4829292;29;20046;-94
2022/08/24 14:13:34;;;;;;;0.20;0.20;;;;;;;;;;4829748;29;20410;-96
2022/08/24 14:19:01;;;;;;;0.20;0.20;;;;;;;;;;4831755;29;20098;-96
2022/08/24 14:21:49;;;;;;;0.20;0.20;;;;;;;;;;4837108;29;20050;-95
2022/08/24 14:24:54;;;;;;;;;;;;;;;;;;;;;
2022/08/24 14:27:42;;;;;;;0.20;0.20;;;;;;;;;;4831548;29;20095;-95
2022/08/24 14:30:29;;;;;;;0.20;0.20;;;;;;;;;;4845484;29;20080;-94
2022/08/24 14:33:10;;;;;;;0.20;0.20;;;;;;;;;;4853205;29;20053;-95
2022/08/24 14:49:23;;;;;;;0.20;0.20;;;;;;;;;;4907603;23;20052;-94
2022/08/24 14:52:24;;;;;;;0.20;0.20;;;;;;;;;;4869218;29;20060;-95
2022/08/24 14:55:16;;;;;;;0.20;0.20;;;;;;;;;;4878089;29;20072;-95
2022/08/24 15:04:48;;;;;;;0.20;0.20;;;;;;;;;;5124712;23;20023;-95
2022/08/24 15:07:20;;;;;;;0.20;0.20;;;;;;;;;;4903886;29;20579;-94
2022/08/24 15:09:55;;;;;;;0.20;0.20;;;;;;;;;;4888624;29;20046;-93
2022/08/24 15:12:28;;;;;;;0.20;0.20;;;;;;;;;;4902049;29;20179;-95
2022/08/24 15:14:56;;;;;;;0.20;0.20;;;;;;;;;;4902872;29;20046;-93
2022/08/24 15:17:23;;;;;;;0.20;0.20;;;;;;;;;;4901382;29;20044;-92
2022/08/24 15:19:51;;;;;;;0.20;0.20;;;;;;;;;;4885543;29;20180;-93
2022/08/24 15:22:20;;;;;;;0.20;0.20;;;;;;;;;;4901278;29;20055;-93
2022/08/24 15:24:51;;;;;;;0.20;0.20;;;;;;;;;;4885282;29;20055;-92
2022/08/24 15:27:17;;;;;;;0.20;0.20;;;;;;;;;;4901323;29;20044;-92
2022/08/24 15:29:49;;;;;;;0.20;0.20;;;;;;;;;;4885877;29;20044;-94
2022/08/24 15:32:15;;;;;;;0.20;0.20;;;;;;;;;;4900995;29;20045;-93
2022/08/24 15:34:47;;;;;;;0.20;0.20;;;;;;;;;;4901465;29;20048;-95
2022/08/24 15:37:33;;;;;;;0.20;0.20;;;;;;;;;;4900654;29;20131;-93
2022/08/24 15:39:59;;;;;;;0.20;0.20;;;;;;;;;;4900893;29;20483;-91